sensor_id;sensor_type;location;lat;lon;timestamp;P1;durP1;ratioP1;P2;durP2;ratioP2
52396;SDS011;38322;53.108;6.308;2022-08-14T05:02:48;11.57;;;10.38;;
52396;SDS011;38322;53.108;6.308;2022-08-14T05:05:14;11.15;;;10.05;;
52396;SDS011;38322;53.108;6.308;2022-08-14T05:07:41;11.82;;;10.63;;
52396;SDS011;38322;53.108;6.308;2022-08-14T05:10:07;12.60;;;10.77;;
52396;SDS011;38322;53.108;6.308;2022-08-14T05:12:33;11.57;;;10.50;;
52396;SDS011;38322;53.108;6.308;2022-08-14T05:14:59;11.30;;;10.20;;
52396;SDS011;38322;53.108;6.308;2022-08-14T05:17:26;11.48;;;10.32;;
52396;SDS011;38322;53.108;6.308;2022-08-14T05:19:52;13.35;;;12.18;;
52396;SDS011;38322;53.108;6.308;2022-08-14T05:22:19;11.13;;;10.02;;
52396;SDS011;38322;53.108;6.308;2022-08-14T05:24:46;10.05;;;9.25;;
52396;SDS011;38322;53.108;6.308;2022-08-14T05:27:13;12.52;;;11.38;;
52396;SDS011;38322;53.108;6.308;2022-08-14T05:29:41;13.38;;;10.75;;
52396;SDS011;38322;53.108;6.308;2022-08-14T05:32:09;12.20;;;10.05;;
52396;SDS011;38322;53.108;6.308;2022-08-14T05:34:35;12.00;;;10.82;;
52396;SDS011;38322;53.108;6.308;2022-08-14T05:37:01;10.45;;;9.60;;
52396;SDS011;38322;53.108;6.308;2022-08-14T05:39:28;10.80;;;9.80;;
52396;SDS011;38322;53.108;6.308;2022-08-14T05:41:54;10.68;;;9.48;;
52396;SDS011;38322;53.108;6.308;2022-08-14T05:44:20;10.30;;;9.40;;
52396;SDS011;38322;53.108;6.308;2022-08-14T05:46:47;10.00;;;9.07;;
52396;SDS011;38322;53.108;6.308;2022-08-14T05:49:13;10.00;;;9.07;;
52396;SDS011;38322;53.108;6.308;2022-08-14T05:51:39;10.70;;;9.75;;
52396;SDS011;38322;53.108;6.308;2022-08-14T05:54:06;14.80;;;8.52;;
52396;SDS011;38322;53.108;6.308;2022-08-14T05:56:32;10.60;;;9.50;;
52396;SDS011;38322;53.108;6.308;2022-08-14T05:58:58;13.43;;;9.30;;
52396;SDS011;38322;53.108;6.308;2022-08-14T06:01:24;9.98;;;9.18;;
52396;SDS011;38322;53.108;6.308;2022-08-14T06:03:50;10.80;;;9.77;;
52396;SDS011;38322;53.108;6.308;2022-08-14T06:06:16;9.88;;;8.85;;
52396;SDS011;38322;53.108;6.308;2022-08-14T06:08:43;10.27;;;8.85;;
52396;SDS011;38322;53.108;6.308;2022-08-14T06:11:08;9.52;;;8.65;;
52396;SDS011;38322;53.108;6.308;2022-08-14T06:13:36;12.45;;;11.15;;
52396;SDS011;38322;53.108;6.308;2022-08-14T06:16:04;10.57;;;9.57;;
52396;SDS011;38322;53.108;6.308;2022-08-14T06:18:30;9.88;;;9.02;;
52396;SDS011;38322;53.108;6.308;2022-08-14T06:20:57;10.73;;;9.80;;
52396;SDS011;38322;53.108;6.308;2022-08-14T06:23:23;11.50;;;9.38;;
52396;SDS011;38322;53.108;6.308;2022-08-14T06:25:49;11.57;;;10.48;;
52396;SDS011;38322;53.108;6.308;2022-08-14T06:28:16;11.50;;;10.45;;
52396;SDS011;38322;53.108;6.308;2022-08-14T06:30:45;11.55;;;9.48;;
52396;SDS011;38322;53.108;6.308;2022-08-14T06:33:11;10.98;;;10.00;;
52396;SDS011;38322;53.108;6.308;2022-08-14T06:35:37;10.10;;;9.30;;
52396;SDS011;38322;53.108;6.308;2022-08-14T06:38:04;10.60;;;9.60;;
52396;SDS011;38322;53.108;6.308;2022-08-14T06:40:32;12.15;;;10.00;;
52396;SDS011;38322;53.108;6.308;2022-08-14T06:43:01;16.52;;;10.80;;
52396;SDS011;38322;53.108;6.308;2022-08-14T06:45:29;10.23;;;9.32;;
52396;SDS011;38322;53.108;6.308;2022-08-14T06:47:56;10.82;;;9.77;;
52396;SDS011;38322;53.108;6.308;2022-08-14T06:50:22;11.65;;;9.23;;
52396;SDS011;38322;53.108;6.308;2022-08-14T06:52:49;9.73;;;8.68;;
52396;SDS011;38322;53.108;6.308;2022-08-14T06:55:15;10.82;;;8.10;;
52396;SDS011;38322;53.108;6.308;2022-08-14T06:57:45;8.20;;;7.50;;
52396;SDS011;38322;53.108;6.308;2022-08-14T07:00:20;9.18;;;8.38;;
52396;SDS011;38322;53.108;6.308;2022-08-14T07:02:48;8.10;;;7.40;;
52396;SDS011;38322;53.108;6.308;2022-08-14T07:05:33;9.55;;;7.75;;
52396;SDS011;38322;53.108;6.308;2022-08-14T07:08:12;7.72;;;7.13;;
52396;SDS011;38322;53.108;6.308;2022-08-14T07:10:52;8.02;;;7.03;;
52396;SDS011;38322;53.108;6.308;2022-08-14T07:13:19;9.00;;;8.10;;
52396;SDS011;38322;53.108;6.308;2022-08-14T07:15:46;7.65;;;6.95;;
52396;SDS011;38322;53.108;6.308;2022-08-14T07:18:22;8.98;;;8.13;;
52396;SDS011;38322;53.108;6.308;2022-08-14T07:20:50;8.77;;;7.95;;
52396;SDS011;38322;53.108;6.308;2022-08-14T07:23:17;7.95;;;7.25;;
52396;SDS011;38322;53.108;6.308;2022-08-14T07:25:45;8.70;;;7.22;;
52396;SDS011;38322;53.108;6.308;2022-08-14T07:28:12;9.65;;;7.07;;
52396;SDS011;38322;53.108;6.308;2022-08-14T07:30:40;7.47;;;6.78;;
52396;SDS011;38322;53.108;6.308;2022-08-14T07:33:06;7.15;;;6.55;;
52396;SDS011;38322;53.108;6.308;2022-08-14T07:35:33;7.90;;;7.20;;
52396;SDS011;38322;53.108;6.308;2022-08-14T07:38:01;9.93;;;6.88;;
52396;SDS011;38322;53.108;6.308;2022-08-14T07:40:28;6.72;;;6.10;;
52396;SDS011;38322;53.108;6.308;2022-08-14T07:42:54;8.18;;;7.38;;
52396;SDS011;38322;53.108;6.308;2022-08-14T07:45:20;8.30;;;6.82;;
52396;SDS011;38322;53.108;6.308;2022-08-14T07:47:46;8.60;;;6.78;;
52396;SDS011;38322;53.108;6.308;2022-08-14T07:50:14;7.07;;;6.38;;
52396;SDS011;38322;53.108;6.308;2022-08-14T07:52:42;7.18;;;6.55;;
52396;SDS011;38322;53.108;6.308;2022-08-14T07:55:09;8.55;;;6.13;;
52396;SDS011;38322;53.108;6.308;2022-08-14T07:57:38;7.80;;;6.28;;
52396;SDS011;38322;53.108;6.308;2022-08-14T08:00:06;7.72;;;6.05;;
52396;SDS011;38322;53.108;6.308;2022-08-14T08:05:03;6.82;;;6.03;;
52396;SDS011;38322;53.108;6.308;2022-08-14T08:07:30;9.10;;;6.30;;
52396;SDS011;38322;53.108;6.308;2022-08-14T08:09:58;7.78;;;6.43;;
52396;SDS011;38322;53.108;6.308;2022-08-14T08:12:26;7.03;;;6.25;;
52396;SDS011;38322;53.108;6.308;2022-08-14T08:14:55;6.45;;;5.88;;
52396;SDS011;38322;53.108;6.308;2022-08-14T08:17:23;8.63;;;5.70;;
52396;SDS011;38322;53.108;6.308;2022-08-14T08:19:49;7.65;;;5.78;;
52396;SDS011;38322;53.108;6.308;2022-08-14T08:22:15;7.13;;;5.53;;
52396;SDS011;38322;53.108;6.308;2022-08-14T08:24:41;6.50;;;6.00;;
52396;SDS011;38322;53.108;6.308;2022-08-14T08:27:14;5.70;;;5.10;;
52396;SDS011;38322;53.108;6.308;2022-08-14T08:29:41;5.93;;;5.30;;
52396;SDS011;38322;53.108;6.308;2022-08-14T08:32:07;6.90;;;6.30;;
52396;SDS011;38322;53.108;6.308;2022-08-14T08:34:42;5.97;;;5.50;;
52396;SDS011;38322;53.108;6.308;2022-08-14T08:37:10;7.38;;;5.43;;
52396;SDS011;38322;53.108;6.308;2022-08-14T08:39:45;9.25;;;5.72;;
52396;SDS011;38322;53.108;6.308;2022-08-14T08:42:12;5.53;;;4.82;;
52396;SDS011;38322;53.108;6.308;2022-08-14T08:44:55;6.15;;;5.55;;
52396;SDS011;38322;53.108;6.308;2022-08-14T08:47:21;6.05;;;5.35;;
52396;SDS011;38322;53.108;6.308;2022-08-14T08:49:47;7.63;;;5.85;;
52396;SDS011;38322;53.108;6.308;2022-08-14T08:52:13;6.75;;;6.10;;
52396;SDS011;38322;53.108;6.308;2022-08-14T08:54:39;7.38;;;5.55;;
52396;SDS011;38322;53.108;6.308;2022-08-14T08:57:10;6.53;;;5.75;;
52396;SDS011;38322;53.108;6.308;2022-08-14T09:02:04;5.32;;;4.78;;
52396;SDS011;38322;53.108;6.308;2022-08-14T09:04:34;5.15;;;4.72;;
52396;SDS011;38322;53.108;6.308;2022-08-14T09:07:03;5.18;;;4.38;;
52396;SDS011;38322;53.108;6.308;2022-08-14T09:09:30;5.80;;;4.63;;
52396;SDS011;38322;53.108;6.308;2022-08-14T09:11:58;4.93;;;4.05;;
52396;SDS011;38322;53.108;6.308;2022-08-14T09:14:27;5.95;;;4.65;;
52396;SDS011;38322;53.108;6.308;2022-08-14T09:16:55;6.65;;;4.65;;
52396;SDS011;38322;53.108;6.308;2022-08-14T09:19:23;5.75;;;4.80;;
52396;SDS011;38322;53.108;6.308;2022-08-14T09:21:50;5.40;;;4.20;;
52396;SDS011;38322;53.108;6.308;2022-08-14T09:24:18;5.35;;;4.50;;
52396;SDS011;38322;53.108;6.308;2022-08-14T09:26:44;6.07;;;4.35;;
52396;SDS011;38322;53.108;6.308;2022-08-14T09:29:10;6.18;;;4.65;;
52396;SDS011;38322;53.108;6.308;2022-08-14T09:31:37;5.18;;;4.68;;
52396;SDS011;38322;53.108;6.308;2022-08-14T09:34:17;9.70;;;5.05;;
52396;SDS011;38322;53.108;6.308;2022-08-14T09:39:55;5.53;;;4.45;;
52396;SDS011;38322;53.108;6.308;2022-08-14T09:42:51;9.07;;;3.72;;
52396;SDS011;38322;53.108;6.308;2022-08-14T09:45:30;8.45;;;4.00;;
52396;SDS011;38322;53.108;6.308;2022-08-14T09:48:00;4.53;;;3.97;;
52396;SDS011;38322;53.108;6.308;2022-08-14T09:50:45;7.40;;;3.97;;
52396;SDS011;38322;53.108;6.308;2022-08-14T09:53:15;5.65;;;4.00;;
52396;SDS011;38322;53.108;6.308;2022-08-14T09:55:57;5.20;;;3.95;;
52396;SDS011;38322;53.108;6.308;2022-08-14T09:58:33;247.70;;;29.75;;
52396;SDS011;38322;53.108;6.308;2022-08-14T10:01:10;9.32;;;4.32;;
52396;SDS011;38322;53.108;6.308;2022-08-14T10:03:45;4.15;;;3.85;;
52396;SDS011;38322;53.108;6.308;2022-08-14T10:06:22;34.95;;;6.00;;
52396;SDS011;38322;53.108;6.308;2022-08-14T10:08:50;4.60;;;3.63;;
52396;SDS011;38322;53.108;6.308;2022-08-14T10:13:47;4.95;;;4.20;;
52396;SDS011;38322;53.108;6.308;2022-08-14T10:16:24;6.45;;;4.18;;
52396;SDS011;38322;53.108;6.308;2022-08-14T10:19:01;5.15;;;4.75;;
52396;SDS011;38322;53.108;6.308;2022-08-14T10:21:32;5.10;;;3.95;;
52396;SDS011;38322;53.108;6.308;2022-08-14T10:23:58;4.22;;;3.78;;
52396;SDS011;38322;53.108;6.308;2022-08-14T10:26:24;4.07;;;3.40;;
52396;SDS011;38322;53.108;6.308;2022-08-14T10:28:51;6.32;;;3.53;;
52396;SDS011;38322;53.108;6.308;2022-08-14T10:33:57;5.07;;;3.53;;
52396;SDS011;38322;53.108;6.308;2022-08-14T10:36:25;4.07;;;3.53;;
52396;SDS011;38322;53.108;6.308;2022-08-14T10:38:58;5.30;;;4.50;;
52396;SDS011;38322;53.108;6.308;2022-08-14T10:41:34;4.53;;;4.00;;
52396;SDS011;38322;53.108;6.308;2022-08-14T10:44:09;5.45;;;3.67;;
52396;SDS011;38322;53.108;6.308;2022-08-14T10:46:39;4.13;;;3.78;;
52396;SDS011;38322;53.108;6.308;2022-08-14T10:49:14;3.90;;;3.55;;
52396;SDS011;38322;53.108;6.308;2022-08-14T10:51:52;4.90;;;3.67;;
52396;SDS011;38322;53.108;6.308;2022-08-14T10:54:36;4.57;;;4.28;;
52396;SDS011;38322;53.108;6.308;2022-08-14T10:57:10;4.07;;;3.47;;
52396;SDS011;38322;53.108;6.308;2022-08-14T10:59:44;6.18;;;2.95;;
52396;SDS011;38322;53.108;6.308;2022-08-14T11:02:17;4.40;;;3.70;;
52396;SDS011;38322;53.108;6.308;2022-08-14T11:04:57;4.05;;;3.70;;
52396;SDS011;38322;53.108;6.308;2022-08-14T11:07:25;3.80;;;3.50;;
52396;SDS011;38322;53.108;6.308;2022-08-14T11:09:52;4.45;;;3.95;;
52396;SDS011;38322;53.108;6.308;2022-08-14T11:12:19;5.05;;;3.20;;
52396;SDS011;38322;53.108;6.308;2022-08-14T11:14:52;3.65;;;3.35;;
52396;SDS011;38322;53.108;6.308;2022-08-14T11:17:19;2.85;;;2.65;;
52396;SDS011;38322;53.108;6.308;2022-08-14T11:19:46;3.75;;;3.25;;
52396;SDS011;38322;53.108;6.308;2022-08-14T11:22:13;4.30;;;3.47;;
52396;SDS011;38322;53.108;6.308;2022-08-14T11:24:41;3.83;;;3.38;;
52396;SDS011;38322;53.108;6.308;2022-08-14T11:27:11;4.88;;;3.40;;
52396;SDS011;38322;53.108;6.308;2022-08-14T11:29:39;3.45;;;3.13;;
52396;SDS011;38322;53.108;6.308;2022-08-14T11:32:07;5.70;;;2.95;;
52396;SDS011;38322;53.108;6.308;2022-08-14T11:34:35;3.25;;;2.42;;
52396;SDS011;38322;53.108;6.308;2022-08-14T11:37:08;3.45;;;3.13;;
52396;SDS011;38322;53.108;6.308;2022-08-14T11:39:35;3.28;;;2.85;;
52396;SDS011;38322;53.108;6.308;2022-08-14T11:42:02;3.13;;;2.92;;
52396;SDS011;38322;53.108;6.308;2022-08-14T11:44:29;3.35;;;3.05;;
52396;SDS011;38322;53.108;6.308;2022-08-14T11:46:55;3.38;;;2.50;;
52396;SDS011;38322;53.108;6.308;2022-08-14T11:49:27;4.47;;;3.22;;
52396;SDS011;38322;53.108;6.308;2022-08-14T11:51:55;4.13;;;3.58;;
52396;SDS011;38322;53.108;6.308;2022-08-14T11:54:21;4.53;;;3.22;;
52396;SDS011;38322;53.108;6.308;2022-08-14T11:56:47;5.90;;;3.40;;
52396;SDS011;38322;53.108;6.308;2022-08-14T11:59:16;4.70;;;3.65;;
52396;SDS011;38322;53.108;6.308;2022-08-14T12:01:44;4.35;;;3.22;;
52396;SDS011;38322;53.108;6.308;2022-08-14T12:04:11;3.72;;;3.42;;
52396;SDS011;38322;53.108;6.308;2022-08-14T12:06:43;2.97;;;2.78;;
52396;SDS011;38322;53.108;6.308;2022-08-14T12:09:27;3.38;;;3.17;;
52396;SDS011;38322;53.108;6.308;2022-08-14T12:11:55;3.03;;;2.55;;
52396;SDS011;38322;53.108;6.308;2022-08-14T12:14:21;3.63;;;3.30;;
52396;SDS011;38322;53.108;6.308;2022-08-14T12:16:58;3.95;;;3.10;;
52396;SDS011;38322;53.108;6.308;2022-08-14T12:19:26;5.68;;;3.10;;
52396;SDS011;38322;53.108;6.308;2022-08-14T12:21:52;3.42;;;3.13;;
52396;SDS011;38322;53.108;6.308;2022-08-14T12:24:18;3.95;;;3.55;;
52396;SDS011;38322;53.108;6.308;2022-08-14T12:26:53;4.32;;;3.92;;
52396;SDS011;38322;53.108;6.308;2022-08-14T12:29:19;3.65;;;3.35;;
52396;SDS011;38322;53.108;6.308;2022-08-14T12:31:45;3.65;;;3.30;;
52396;SDS011;38322;53.108;6.308;2022-08-14T12:34:28;3.58;;;3.38;;
52396;SDS011;38322;53.108;6.308;2022-08-14T12:37:01;4.30;;;3.92;;
52396;SDS011;38322;53.108;6.308;2022-08-14T12:39:29;6.40;;;3.08;;
52396;SDS011;38322;53.108;6.308;2022-08-14T12:41:55;4.40;;;4.00;;
52396;SDS011;38322;53.108;6.308;2022-08-14T12:44:34;3.88;;;3.58;;
52396;SDS011;38322;53.108;6.308;2022-08-14T12:47:03;5.20;;;3.67;;
52396;SDS011;38322;53.108;6.308;2022-08-14T12:49:48;4.38;;;4.07;;
52396;SDS011;38322;53.108;6.308;2022-08-14T12:52:26;3.97;;;3.67;;
52396;SDS011;38322;53.108;6.308;2022-08-14T12:54:59;4.05;;;3.63;;
52396;SDS011;38322;53.108;6.308;2022-08-14T12:57:39;4.95;;;4.30;;
52396;SDS011;38322;53.108;6.308;2022-08-14T13:00:15;5.78;;;5.28;;
52396;SDS011;38322;53.108;6.308;2022-08-14T13:02:45;5.13;;;3.97;;
52396;SDS011;38322;53.108;6.308;2022-08-14T13:05:14;5.72;;;3.22;;
52396;SDS011;38322;53.108;6.308;2022-08-14T13:07:41;4.82;;;4.43;;
52396;SDS011;38322;53.108;6.308;2022-08-14T13:10:08;3.75;;;3.45;;
52396;SDS011;38322;53.108;6.308;2022-08-14T13:12:38;3.95;;;3.65;;
52396;SDS011;38322;53.108;6.308;2022-08-14T13:15:07;4.82;;;4.53;;
52396;SDS011;38322;53.108;6.308;2022-08-14T13:17:40;4.38;;;3.97;;
52396;SDS011;38322;53.108;6.308;2022-08-14T13:20:07;6.30;;;4.07;;
52396;SDS011;38322;53.108;6.308;2022-08-14T13:22:37;3.67;;;3.35;;
52396;SDS011;38322;53.108;6.308;2022-08-14T13:25:06;4.57;;;3.63;;
52396;SDS011;38322;53.108;6.308;2022-08-14T13:27:32;5.45;;;4.10;;
52396;SDS011;38322;53.108;6.308;2022-08-14T13:30:01;4.50;;;3.63;;
52396;SDS011;38322;53.108;6.308;2022-08-14T13:32:32;4.88;;;3.53;;
52396;SDS011;38322;53.108;6.308;2022-08-14T13:34:59;6.10;;;3.15;;
52396;SDS011;38322;53.108;6.308;2022-08-14T13:37:25;3.80;;;3.50;;
52396;SDS011;38322;53.108;6.308;2022-08-14T13:39:52;3.95;;;3.65;;
52396;SDS011;38322;53.108;6.308;2022-08-14T13:42:19;3.67;;;3.38;;
52396;SDS011;38322;53.108;6.308;2022-08-14T13:44:48;5.75;;;3.60;;
52396;SDS011;38322;53.108;6.308;2022-08-14T13:47:16;3.15;;;2.95;;
52396;SDS011;38322;53.108;6.308;2022-08-14T13:49:45;2.90;;;2.70;;
52396;SDS011;38322;53.108;6.308;2022-08-14T13:52:12;3.17;;;2.97;;
52396;SDS011;38322;53.108;6.308;2022-08-14T13:54:43;3.88;;;3.53;;
52396;SDS011;38322;53.108;6.308;2022-08-14T13:57:11;3.45;;;3.15;;
52396;SDS011;38322;53.108;6.308;2022-08-14T13:59:42;5.38;;;3.53;;
52396;SDS011;38322;53.108;6.308;2022-08-14T14:02:10;3.20;;;2.95;;
52396;SDS011;38322;53.108;6.308;2022-08-14T14:04:39;4.97;;;3.50;;
52396;SDS011;38322;53.108;6.308;2022-08-14T14:07:08;3.67;;;3.38;;
52396;SDS011;38322;53.108;6.308;2022-08-14T14:09:38;5.13;;;3.40;;
52396;SDS011;38322;53.108;6.308;2022-08-14T14:12:06;3.70;;;3.38;;
52396;SDS011;38322;53.108;6.308;2022-08-14T14:14:33;5.15;;;2.40;;
52396;SDS011;38322;53.108;6.308;2022-08-14T14:17:02;3.22;;;3.03;;
52396;SDS011;38322;53.108;6.308;2022-08-14T14:19:30;4.30;;;3.45;;
52396;SDS011;38322;53.108;6.308;2022-08-14T14:22:05;4.35;;;3.50;;
52396;SDS011;38322;53.108;6.308;2022-08-14T14:24:31;3.72;;;3.42;;
52396;SDS011;38322;53.108;6.308;2022-08-14T14:26:58;4.03;;;3.50;;
52396;SDS011;38322;53.108;6.308;2022-08-14T14:29:30;3.42;;;3.13;;
52396;SDS011;38322;53.108;6.308;2022-08-14T14:31:58;3.67;;;3.38;;
52396;SDS011;38322;53.108;6.308;2022-08-14T14:34:27;3.33;;;3.03;;
52396;SDS011;38322;53.108;6.308;2022-08-14T14:36:55;4.00;;;3.70;;
52396;SDS011;38322;53.108;6.308;2022-08-14T14:39:26;3.60;;;3.10;;
52396;SDS011;38322;53.108;6.308;2022-08-14T14:41:54;4.65;;;3.33;;
52396;SDS011;38322;53.108;6.308;2022-08-14T14:44:25;3.40;;;3.10;;
52396;SDS011;38322;53.108;6.308;2022-08-14T14:46:56;4.57;;;3.10;;
52396;SDS011;38322;53.108;6.308;2022-08-14T14:49:26;4.25;;;2.97;;
52396;SDS011;38322;53.108;6.308;2022-08-14T14:51:53;5.05;;;3.58;;
52396;SDS011;38322;53.108;6.308;2022-08-14T14:54:21;2.95;;;2.75;;
52396;SDS011;38322;53.108;6.308;2022-08-14T14:56:48;5.65;;;4.43;;
52396;SDS011;38322;53.108;6.308;2022-08-14T14:59:15;3.88;;;3.42;;
52396;SDS011;38322;53.108;6.308;2022-08-14T15:01:45;4.53;;;3.47;;
52396;SDS011;38322;53.108;6.308;2022-08-14T15:04:13;7.57;;;3.83;;
52396;SDS011;38322;53.108;6.308;2022-08-14T15:06:40;3.40;;;3.20;;
52396;SDS011;38322;53.108;6.308;2022-08-14T15:09:06;4.97;;;3.42;;
52396;SDS011;38322;53.108;6.308;2022-08-14T15:11:33;4.07;;;3.67;;
52396;SDS011;38322;53.108;6.308;2022-08-14T15:13:59;5.72;;;3.55;;
52396;SDS011;38322;53.108;6.308;2022-08-14T15:16:25;2.95;;;2.60;;
52396;SDS011;38322;53.108;6.308;2022-08-14T15:18:52;6.00;;;3.47;;
52396;SDS011;38322;53.108;6.308;2022-08-14T15:21:17;3.42;;;3.22;;
52396;SDS011;38322;53.108;6.308;2022-08-14T15:23:43;4.68;;;3.53;;
52396;SDS011;38322;53.108;6.308;2022-08-14T15:26:12;3.30;;;3.00;;
52396;SDS011;38322;53.108;6.308;2022-08-14T15:28:40;4.60;;;3.22;;
52396;SDS011;38322;53.108;6.308;2022-08-14T15:31:06;4.22;;;3.80;;
52396;SDS011;38322;53.108;6.308;2022-08-14T15:33:32;4.10;;;3.70;;
52396;SDS011;38322;53.108;6.308;2022-08-14T15:36:16;5.05;;;3.88;;
52396;SDS011;38322;53.108;6.308;2022-08-14T15:38:43;5.30;;;4.32;;
52396;SDS011;38322;53.108;6.308;2022-08-14T15:41:11;6.47;;;3.58;;
52396;SDS011;38322;53.108;6.308;2022-08-14T15:43:37;5.10;;;4.65;;
52396;SDS011;38322;53.108;6.308;2022-08-14T15:46:05;5.90;;;3.90;;
52396;SDS011;38322;53.108;6.308;2022-08-14T15:48:32;4.10;;;3.70;;
52396;SDS011;38322;53.108;6.308;2022-08-14T15:51:00;6.15;;;3.90;;
52396;SDS011;38322;53.108;6.308;2022-08-14T15:53:27;4.45;;;3.70;;
52396;SDS011;38322;53.108;6.308;2022-08-14T15:55:53;4.55;;;4.15;;
52396;SDS011;38322;53.108;6.308;2022-08-14T15:58:20;4.70;;;4.30;;
52396;SDS011;38322;53.108;6.308;2022-08-14T16:00:49;4.18;;;3.20;;
52396;SDS011;38322;53.108;6.308;2022-08-14T16:03:34;4.15;;;3.75;;
52396;SDS011;38322;53.108;6.308;2022-08-14T16:06:01;3.92;;;3.20;;
52396;SDS011;38322;53.108;6.308;2022-08-14T16:08:34;5.40;;;3.13;;
52396;SDS011;38322;53.108;6.308;2022-08-14T16:11:02;6.95;;;4.50;;
52396;SDS011;38322;53.108;6.308;2022-08-14T16:13:29;5.93;;;3.95;;
52396;SDS011;38322;53.108;6.308;2022-08-14T16:15:56;4.43;;;3.53;;
52396;SDS011;38322;53.108;6.308;2022-08-14T16:18:22;3.47;;;3.17;;
52396;SDS011;38322;53.108;6.308;2022-08-14T16:20:50;3.53;;;3.22;;
52396;SDS011;38322;53.108;6.308;2022-08-14T16:23:22;4.03;;;3.45;;
52396;SDS011;38322;53.108;6.308;2022-08-14T16:25:50;4.55;;;3.67;;
52396;SDS011;38322;53.108;6.308;2022-08-14T16:28:17;3.28;;;2.97;;
52396;SDS011;38322;53.108;6.308;2022-08-14T16:30:42;3.50;;;2.97;;
52396;SDS011;38322;53.108;6.308;2022-08-14T16:33:09;3.83;;;3.13;;
52396;SDS011;38322;53.108;6.308;2022-08-14T16:35:35;5.53;;;3.70;;
52396;SDS011;38322;53.108;6.308;2022-08-14T16:38:03;3.78;;;3.45;;
52396;SDS011;38322;53.108;6.308;2022-08-14T16:40:29;3.83;;;3.28;;
52396;SDS011;38322;53.108;6.308;2022-08-14T16:42:57;9.13;;;3.35;;
52396;SDS011;38322;53.108;6.308;2022-08-14T16:45:25;4.25;;;3.20;;
52396;SDS011;38322;53.108;6.308;2022-08-14T16:47:53;5.90;;;3.20;;
52396;SDS011;38322;53.108;6.308;2022-08-14T16:50:20;4.00;;;3.13;;
52396;SDS011;38322;53.108;6.308;2022-08-14T16:52:46;3.70;;;2.40;;
52396;SDS011;38322;53.108;6.308;2022-08-14T16:55:13;3.63;;;2.80;;
52396;SDS011;38322;53.108;6.308;2022-08-14T16:57:47;6.50;;;2.33;;
52396;SDS011;38322;53.108;6.308;2022-08-14T17:00:32;10.30;;;3.90;;
52396;SDS011;38322;53.108;6.308;2022-08-14T17:03:01;4.32;;;3.53;;
52396;SDS011;38322;53.108;6.308;2022-08-14T17:10:29;3.95;;;3.38;;
52396;SDS011;38322;53.108;6.308;2022-08-14T17:13:15;4.53;;;4.00;;
52396;SDS011;38322;53.108;6.308;2022-08-14T17:15:45;4.32;;;3.50;;
52396;SDS011;38322;53.108;6.308;2022-08-14T17:18:36;5.22;;;3.10;;
52396;SDS011;38322;53.108;6.308;2022-08-14T17:21:15;5.40;;;3.00;;
52396;SDS011;38322;53.108;6.308;2022-08-14T17:23:42;5.03;;;4.53;;
52396;SDS011;38322;53.108;6.308;2022-08-14T17:26:08;4.38;;;3.75;;
52396;SDS011;38322;53.108;6.308;2022-08-14T17:29:10;3.93;;;3.63;;
52396;SDS011;38322;53.108;6.308;2022-08-14T17:31:39;6.38;;;4.15;;
52396;SDS011;38322;53.108;6.308;2022-08-14T17:34:08;8.15;;;4.18;;
52396;SDS011;38322;53.108;6.308;2022-08-14T17:36:34;5.97;;;4.25;;
52396;SDS011;38322;53.108;6.308;2022-08-14T17:39:08;5.50;;;4.97;;
52396;SDS011;38322;53.108;6.308;2022-08-14T17:44:17;7.28;;;5.43;;
52396;SDS011;38322;53.108;6.308;2022-08-14T17:46:46;9.98;;;5.20;;
52396;SDS011;38322;53.108;6.308;2022-08-14T17:49:16;5.65;;;4.95;;
52396;SDS011;38322;53.108;6.308;2022-08-14T17:51:54;6.07;;;4.28;;
52396;SDS011;38322;53.108;6.308;2022-08-14T17:54:29;8.77;;;4.65;;
52396;SDS011;38322;53.108;6.308;2022-08-14T17:59:27;10.32;;;4.90;;
52396;SDS011;38322;53.108;6.308;2022-08-14T18:01:53;9.23;;;6.03;;
52396;SDS011;38322;53.108;6.308;2022-08-14T18:04:26;7.40;;;6.20;;
52396;SDS011;38322;53.108;6.308;2022-08-14T18:06:53;9.25;;;4.82;;
52396;SDS011;38322;53.108;6.308;2022-08-14T18:09:20;7.88;;;5.38;;
52396;SDS011;38322;53.108;6.308;2022-08-14T18:11:48;9.05;;;5.50;;
52396;SDS011;38322;53.108;6.308;2022-08-14T18:14:16;5.93;;;4.85;;
52396;SDS011;38322;53.108;6.308;2022-08-14T18:16:42;7.20;;;5.97;;
52396;SDS011;38322;53.108;6.308;2022-08-14T18:19:10;7.28;;;5.60;;
52396;SDS011;38322;53.108;6.308;2022-08-14T18:21:45;7.05;;;5.63;;
52396;SDS011;38322;53.108;6.308;2022-08-14T18:24:11;6.13;;;5.13;;
52396;SDS011;38322;53.108;6.308;2022-08-14T18:26:37;7.88;;;5.50;;
52396;SDS011;38322;53.108;6.308;2022-08-14T18:29:03;6.05;;;5.28;;
52396;SDS011;38322;53.108;6.308;2022-08-14T18:31:32;7.57;;;5.85;;
52396;SDS011;38322;53.108;6.308;2022-08-14T18:34:19;5.53;;;5.00;;
52396;SDS011;38322;53.108;6.308;2022-08-14T18:36:47;6.00;;;5.60;;
52396;SDS011;38322;53.108;6.308;2022-08-14T18:39:33;6.57;;;5.85;;
52396;SDS011;38322;53.108;6.308;2022-08-14T18:49:57;6.93;;;5.88;;
52396;SDS011;38322;53.108;6.308;2022-08-14T18:54:58;10.50;;;6.68;;
52396;SDS011;38322;53.108;6.308;2022-08-14T18:57:24;6.45;;;5.95;;
52396;SDS011;38322;53.108;6.308;2022-08-14T18:59:50;7.85;;;6.18;;
52396;SDS011;38322;53.108;6.308;2022-08-14T19:04:52;11.23;;;7.15;;
52396;SDS011;38322;53.108;6.308;2022-08-14T19:07:19;9.23;;;6.25;;
52396;SDS011;38322;53.108;6.308;2022-08-14T19:09:56;9.00;;;7.25;;
52396;SDS011;38322;53.108;6.308;2022-08-14T19:15:18;8.05;;;5.57;;
52396;SDS011;38322;53.108;6.308;2022-08-14T19:17:46;6.30;;;5.72;;
52396;SDS011;38322;53.108;6.308;2022-08-14T19:20:12;11.90;;;6.50;;
52396;SDS011;38322;53.108;6.308;2022-08-14T19:22:40;9.25;;;6.40;;
52396;SDS011;38322;53.108;6.308;2022-08-14T19:25:07;8.10;;;7.22;;
52396;SDS011;38322;53.108;6.308;2022-08-14T19:27:36;10.73;;;7.68;;
52396;SDS011;38322;53.108;6.308;2022-08-14T19:32:40;13.27;;;9.20;;
52396;SDS011;38322;53.108;6.308;2022-08-14T19:35:41;17.02;;;8.75;;
52396;SDS011;38322;53.108;6.308;2022-08-14T19:37:53;11.43;;;7.78;;
52396;SDS011;38322;53.108;6.308;2022-08-14T19:40:32;8.25;;;6.38;;
52396;SDS011;38322;53.108;6.308;2022-08-14T19:43:04;10.10;;;7.47;;
52396;SDS011;38322;53.108;6.308;2022-08-14T19:45:30;9.35;;;8.52;;
52396;SDS011;38322;53.108;6.308;2022-08-14T19:47:56;9.77;;;8.82;;
52396;SDS011;38322;53.108;6.308;2022-08-14T19:50:22;8.98;;;8.07;;
52396;SDS011;38322;53.108;6.308;2022-08-14T19:53:00;7.82;;;7.03;;
52396;SDS011;38322;53.108;6.308;2022-08-14T19:55:29;7.10;;;6.35;;
52396;SDS011;38322;53.108;6.308;2022-08-14T19:57:56;14.77;;;5.97;;
